Terminal Aerodrome Forecast
Issued by NWS Kansas City/Pleasant Hill, MO

Home | Current Version | Previous Version | Text Only | Print | Product List | Glossary On
Versions: 1 2 3 4 5 6 7 8 9 10 11 12 13 14 15 16
993
FTUS43 KEAX 190034 AAA
TAFMCI
TAF AMD
KMCI 190034Z 1901/1924 VRB04KT P6SM VCTS SCT035CB
     FM190200 27005KT P6SM FEW250
     FM191600 16006KT P6SM SCT250=

USA.gov is the U.S. government's official web portal to all federal, state and local government web resources and services.